Time;durP1;ratioP1;P1;durP2;ratioP2;P2;SDS_P1;SDS_P2;PMS_P1;PMS_P2;Temp;Humidity;BMP_temperature;BMP_pressure;BME280_temperature;BME280_humidity;BME280_pressure;Samples;Min_cycle;Max_cycle;Signal;HPM_P1;HPM_P2
2024/04/18 00:02:39;;;;;;;4.17;2.77;;;;;;;-145.69;68.27;52280.00;5545600;26;20226;-78
2024/04/18 00:05:09;;;;;;;6.30;3.07;;;;;;;-145.69;68.04;52301.81;5508775;26;20270;-78
2024/04/18 00:07:38;;;;;;;3.90;2.90;;;;;;;-145.69;68.58;52274.06;5539922;26;20276;-78
2024/04/18 00:10:07;;;;;;;4.00;3.10;;;;;;;-145.69;68.88;52258.22;5545917;26;20225;-78
2024/04/18 00:12:35;;;;;;;4.80;3.40;;;;;;;-145.69;68.72;52278.03;5544659;26;20217;-78
2024/04/18 00:15:18;;;;;;;5.40;3.00;;;;;;;-145.69;68.65;52285.97;5545832;26;20213;-78
2024/04/18 00:17:46;;;;;;;5.70;3.23;;;;;;;-145.69;68.40;52274.06;5545140;26;20260;-77
2024/04/18 00:20:14;;;;;;;4.13;3.10;;;;;;;-145.69;68.67;52274.06;5546426;26;20782;-78
2024/04/18 00:22:40;;;;;;;4.73;3.40;;;;;;;-145.69;69.19;52282.00;5544675;26;20222;-78
2024/04/18 00:25:10;;;;;;;3.90;3.10;;;;;;;-145.69;69.28;52252.28;5544184;26;20669;-78
2024/04/18 00:27:40;;;;;;;4.70;3.27;;;;;;;-145.69;69.22;52264.16;5544757;26;20225;-79
2024/04/18 00:30:09;;;;;;;4.43;3.40;;;;;;;-145.69;69.03;52287.94;5543293;26;20290;-79
2024/04/18 00:32:38;;;;;;;4.50;3.03;;;;;;;-145.69;68.93;52301.81;5546401;26;20325;-78
2024/04/18 00:35:11;;;;;;;3.47;2.70;;;;;;;-145.69;68.05;52285.97;5548671;26;20637;-78
2024/04/18 00:37:37;;;;;;;4.13;2.93;;;;;;;-145.69;68.69;52305.75;5548316;25;20221;-78
2024/04/18 00:40:14;;;;;;;4.50;3.07;;;;;;;-145.69;68.61;52254.28;5548761;26;20294;-78
2024/04/18 00:42:40;;;;;;;4.70;3.40;;;;;;;-145.69;68.39;52254.28;5546436;25;20251;-78
2024/04/18 00:45:10;;;;;;;6.23;3.47;;;;;;;-145.69;68.60;52285.97;5545975;26;20226;-78
2024/04/18 00:47:39;;;;;;;4.17;3.07;;;;;;;-145.69;68.60;52289.91;5545641;26;20261;-78
2024/04/18 00:50:12;;;;;;;4.60;3.10;;;;;;;-145.69;68.71;52285.97;5545634;26;20266;-78
2024/04/18 00:52:38;;;;;;;4.90;3.47;;;;;;;-145.69;68.48;52254.28;5545856;26;20276;-78
2024/04/18 00:55:10;;;;;;;9.87;3.73;;;;;;;-145.69;68.94;52270.13;5546081;26;20221;-78
2024/04/18 00:57:42;;;;;;;4.00;3.33;;;;;;;-145.69;68.31;52285.97;5545222;26;20221;-79
2024/04/18 01:00:12;;;;;;;4.97;3.77;;;;;;;-145.69;68.53;52293.88;5544134;26;20229;-79
2024/04/18 01:02:46;;;;;;;5.30;3.83;;;;;;;-145.69;68.00;52262.19;5542788;26;20271;-80
2024/04/18 01:05:17;;;;;;;4.63;3.17;;;;;;;-145.69;67.61;52283.97;5541826;26;20260;-79
2024/04/18 01:07:42;;;;;;;3.93;2.57;;;;;;;-145.69;67.55;52285.97;5546609;26;20233;-79
2024/04/18 01:10:20;;;;;;;3.87;2.80;;;;;;;-145.69;67.25;52270.13;5547383;26;20333;-79
2024/04/18 01:12:54;;;;;;;4.27;2.97;;;;;;;-145.69;67.57;52270.13;5546021;26;20337;-80
2024/04/18 01:15:23;;;;;;;3.70;2.60;;;;;;;-145.69;67.47;52250.31;5546901;26;20255;-78
2024/04/18 01:17:48;;;;;;;3.40;2.70;;;;;;;-145.69;67.47;52280.00;5546083;26;20311;-80
2024/04/18 01:20:33;;;;;;;2.77;2.40;;;;;;;-145.69;67.63;52274.06;5547438;26;20241;-79
2024/04/18 01:23:00;;;;;;;5.30;2.40;;;;;;;-145.69;67.67;52299.81;5546735;26;20221;-79
2024/04/18 01:25:30;;;;;;;4.60;3.27;;;;;;;-145.69;67.55;52262.19;5547218;26;20280;-79
2024/04/18 01:27:58;;;;;;;5.03;3.17;;;;;;;-145.69;67.79;52274.06;5544826;26;20267;-78
2024/04/18 01:30:34;;;;;;;4.33;2.90;;;;;;;-145.69;67.65;52254.28;5545358;26;20267;-78
2024/04/18 01:33:02;;;;;;;4.20;3.20;;;;;;;-145.69;67.68;52303.78;5545823;26;20256;-79
2024/04/18 01:35:31;;;;;;;4.00;2.80;;;;;;;-145.69;67.04;52283.97;5545867;26;20233;-78
2024/04/18 01:37:56;;;;;;;4.03;2.70;;;;;;;-145.69;67.40;52301.81;5544909;26;20365;-78
2024/04/18 01:40:25;;;;;;;6.17;2.50;;;;;;;-145.69;67.28;52256.25;5544931;26;20233;-78
2024/04/18 01:42:50;;;;;;;4.37;2.13;;;;;;;-145.69;67.45;52266.16;5545580;25;20544;-78
2024/04/18 01:45:26;;;;;;;3.37;2.40;;;;;;;-145.69;67.29;52270.13;5545378;26;20321;-78
2024/04/18 01:47:53;;;;;;;2.70;2.40;;;;;;;-145.69;67.58;52266.16;5546290;26;20792;-79
2024/04/18 01:50:22;;;;;;;2.77;2.07;;;;;;;-145.69;67.67;52260.22;5546594;26;20226;-78
2024/04/18 01:52:50;;;;;;;3.70;2.23;;;;;;;-145.69;67.63;52289.91;5545531;26;20237;-79
2024/04/18 01:55:21;;;;;;;3.77;2.47;;;;;;;-145.69;67.38;52282.00;5546039;26;20267;-79
2024/04/18 01:57:50;;;;;;;3.57;2.40;;;;;;;-145.69;67.23;52238.44;5546246;26;20233;-78
2024/04/18 02:00:21;;;;;;;4.40;2.97;;;;;;;-145.69;67.28;52256.25;5546109;26;20259;-79
2024/04/18 02:02:50;;;;;;;2.90;2.57;;;;;;;-145.69;67.25;52238.44;5546005;26;20298;-78
2024/04/18 02:05:18;;;;;;;3.00;2.47;;;;;;;-145.69;67.06;52291.91;5544510;26;20237;-78
2024/04/18 02:07:47;;;;;;;3.53;2.50;;;;;;;-145.69;66.81;52270.13;5545056;26;20237;-79
2024/04/18 02:10:15;;;;;;;5.53;2.70;;;;;;;-145.69;66.68;52262.19;5545358;26;20264;-79
2024/04/18 02:12:42;;;;;;;5.00;2.40;;;;;;;-145.69;66.88;52270.13;5546625;26;20277;-78
2024/04/18 02:15:13;;;;;;;2.37;1.97;;;;;;;-145.69;66.68;52276.06;5547662;26;20271;-78
2024/04/18 02:17:45;;;;;;;5.30;2.60;;;;;;;-145.69;66.47;52266.16;5545523;26;20252;-78
2024/04/18 02:20:13;;;;;;;4.13;2.70;;;;;;;-145.69;66.47;52285.97;5547200;26;20252;-78
2024/04/18 02:22:38;;;;;;;2.57;2.20;;;;;;;-145.69;66.60;52258.22;5545930;26;20286;-79
2024/04/18 02:25:11;;;;;;;2.90;2.50;;;;;;;-145.69;66.36;52293.88;5546959;26;20233;-77
2024/04/18 02:27:46;;;;;;;3.63;2.60;;;;;;;-145.69;66.53;52274.06;5545534;26;20280;-78
2024/04/18 02:30:15;;;;;;;3.47;2.20;;;;;;;-145.69;66.41;52278.03;5545473;26;20302;-78
2024/04/18 02:32:45;;;;;;;3.00;2.20;;;;;;;-145.69;66.49;52266.16;5552404;25;20270;-78
2024/04/18 02:35:13;;;;;;;3.23;2.30;;;;;;;-145.69;65.96;52282.00;5551178;26;20705;-78
2024/04/18 02:37:39;;;;;;;3.30;2.40;;;;;;;-145.69;66.12;52285.97;5550288;26;20260;-78
2024/04/18 02:40:08;;;;;;;3.70;2.57;;;;;;;-145.69;66.11;52297.84;5550120;26;20209;-78
2024/04/18 02:42:34;;;;;;;3.53;2.57;;;;;;;-145.69;65.63;52276.06;5549474;26;20251;-78
2024/04/18 02:45:04;;;;;;;3.47;2.70;;;;;;;-145.69;66.06;52254.28;5549682;26;20206;-78
2024/04/18 02:47:32;;;;;;;2.87;2.53;;;;;;;-145.69;65.80;52266.16;5548841;26;20225;-78
2024/04/18 02:50:10;;;;;;;3.73;2.50;;;;;;;-145.69;65.72;52264.16;5548324;26;20841;-78
2024/04/18 02:52:38;;;;;;;4.73;2.50;;;;;;;-145.69;65.63;52295.84;5547462;26;20285;-78
2024/04/18 02:55:07;;;;;;;4.33;2.47;;;;;;;-145.69;65.93;52287.94;5545155;26;20825;-78
2024/04/18 02:57:38;;;;;;;3.60;2.30;;;;;;;-145.69;66.26;52287.94;5546321;26;20225;-78
2024/04/18 03:00:05;;;;;;;5.57;3.13;;;;;;;-145.69;66.31;52291.91;5546449;26;20230;-78
2024/04/18 03:02:36;;;;;;;3.93;2.57;;;;;;;-145.69;66.34;52289.91;5547358;26;20272;-79
2024/04/18 03:05:11;;;;;;;3.63;2.53;;;;;;;-145.69;66.60;52289.91;5547406;26;20206;-78
2024/04/18 03:07:41;;;;;;;4.73;2.93;;;;;;;-145.69;66.72;52282.00;5547193;26;20225;-78
2024/04/18 03:10:07;;;;;;;3.60;2.83;;;;;;;-145.69;66.87;52293.88;5546347;26;20287;-78
2024/04/18 03:12:41;;;;;;;6.30;2.87;;;;;;;-145.69;66.64;52282.00;5546400;26;20225;-78
2024/04/18 03:15:12;;;;;;;6.80;2.73;;;;;;;-145.69;66.77;52278.03;5546824;26;20230;-78
2024/04/18 03:17:43;;;;;;;4.03;2.90;;;;;;;-145.69;66.62;52266.16;5546004;26;20248;-78
2024/04/18 03:20:11;;;;;;;3.97;3.00;;;;;;;-145.69;66.44;52282.00;5545588;26;20233;-78
2024/04/18 03:22:46;;;;;;;3.30;2.70;;;;;;;-145.69;66.58;52270.13;5547195;26;20269;-79
2024/04/18 03:25:17;;;;;;;2.90;2.40;;;;;;;-145.69;66.59;52270.13;5545538;26;20229;-78
2024/04/18 03:27:47;;;;;;;6.03;2.90;;;;;;;-145.69;66.71;52262.19;5546136;25;20217;-77
2024/04/18 03:30:13;;;;;;;4.30;3.10;;;;;;;-145.69;66.43;52264.16;5545512;26;20221;-78
2024/04/18 03:32:43;;;;;;;2.70;2.50;;;;;;;-145.69;66.54;52266.16;5545561;26;20217;-78
2024/04/18 03:35:13;;;;;;;3.73;2.67;;;;;;;-145.69;66.73;52282.00;5544491;26;20243;-78
2024/04/18 03:37:46;;;;;;;5.07;2.97;;;;;;;-145.69;66.82;52270.13;5548707;26;20221;-78
2024/04/18 03:40:16;;;;;;;2.80;2.30;;;;;;;-145.69;66.60;52246.34;5547012;26;20273;-78
2024/04/18 03:42:45;;;;;;;4.60;2.90;;;;;;;-145.69;66.39;52276.06;5547745;25;20217;-78
2024/04/18 03:45:13;;;;;;;3.93;3.13;;;;;;;-145.69;66.11;52278.03;5545719;26;20226;-78
2024/04/18 03:47:47;;;;;;;4.03;3.17;;;;;;;-145.69;66.20;52254.28;5545974;26;20265;-80
2024/04/18 03:50:16;;;;;;;3.53;2.57;;;;;;;-145.69;66.57;52274.06;5547296;26;20719;-78
2024/04/18 03:52:44;;;;;;;3.03;2.40;;;;;;;-145.69;66.13;52305.75;5545947;26;20224;-78
2024/04/18 03:55:10;;;;;;;5.07;2.87;;;;;;;-145.69;66.34;52299.81;5545426;26;20226;-79
2024/04/18 03:57:41;;;;;;;4.63;2.80;;;;;;;-145.69;66.64;52274.06;5546512;26;20633;-79
2024/04/18 04:00:08;;;;;;;3.80;2.53;;;;;;;-145.69;66.18;52285.97;5545167;26;20222;-78
2024/04/18 04:02:39;;;;;;;4.43;2.77;;;;;;;-145.69;66.17;52272.09;5547149;26;20229;-78
2024/04/18 04:05:04;;;;;;;6.97;2.90;;;;;;;-145.69;66.12;52248.34;5544549;26;20245;-78
2024/04/18 04:07:35;;;;;;;4.33;2.83;;;;;;;-145.69;66.46;52274.06;5543594;25;20340;-78
2024/04/18 04:10:01;;;;;;;3.97;2.60;;;;;;;-145.69;66.18;52317.66;5535824;26;20592;-79
2024/04/18 04:12:29;;;;;;;4.90;3.30;;;;;;;-145.69;66.01;52264.16;5544085;26;20217;-78
2024/04/18 04:14:55;;;;;;;4.00;3.20;;;;;;;-145.69;65.71;52274.06;5539647;26;20355;-78
2024/04/18 04:17:28;;;;;;;3.20;2.50;;;;;;;-145.69;66.06;52297.84;5535432;26;20560;-77
2024/04/18 04:19:53;;;;;;;5.10;3.00;;;;;;;-145.69;65.81;52301.81;5534993;26;20218;-78
2024/04/18 04:22:21;;;;;;;4.70;3.40;;;;;;;-145.69;66.31;52305.75;5532745;26;20225;-78
2024/04/18 04:24:52;;;;;;;6.23;3.77;;;;;;;-145.69;65.98;52268.13;5535643;26;20277;-78
2024/04/18 04:27:20;;;;;;;6.13;4.55;;;;;;;-145.69;67.32;52287.94;5535627;26;20380;-79
2024/04/18 04:29:48;;;;;;;5.13;3.43;;;;;;;-145.69;66.68;52274.06;5542175;26;20261;-78
2024/04/18 04:32:22;;;;;;;4.83;3.37;;;;;;;-145.69;66.28;52276.06;5543805;26;20225;-77
2024/04/18 04:34:51;;;;;;;4.93;3.23;;;;;;;-145.69;66.65;52283.97;5541609;26;20271;-80
2024/04/18 04:37:19;;;;;;;4.00;3.10;;;;;;;-145.69;66.23;52256.25;5539757;26;20268;-80
2024/04/18 04:39:54;;;;;;;5.93;3.53;;;;;;;-145.69;66.18;52244.38;5545245;26;20269;-77
2024/04/18 04:42:24;;;;;;;4.40;2.83;;;;;;;-145.69;65.96;52291.91;5542746;26;20269;-78
2024/04/18 04:44:49;;;;;;;5.47;3.57;;;;;;;-145.69;66.08;52266.16;5541465;26;20312;-78
2024/04/18 04:47:18;;;;;;;4.27;3.37;;;;;;;-145.69;65.80;52274.06;5542412;26;20234;-78
2024/04/18 04:49:46;;;;;;;6.77;4.27;;;;;;;-145.69;65.93;52274.06;5542324;26;20808;-78
2024/04/18 04:52:19;;;;;;;6.57;4.07;;;;;;;-145.69;65.90;52280.00;5543990;26;20664;-80
2024/04/18 04:54:46;;;;;;;4.47;3.10;;;;;;;-145.69;65.43;52262.19;5522722;26;20229;-78
2024/04/18 04:57:17;;;;;;;6.60;3.50;;;;;;;-145.69;65.38;52212.69;5542559;26;20317;-80
2024/04/18 04:59:52;;;;;;;5.70;3.87;;;;;;;-145.69;65.33;52240.41;5539732;26;20233;-79
2024/04/18 05:02:22;;;;;;;4.93;3.37;;;;;;;-145.69;65.36;52276.06;5543520;26;20228;-79
2024/04/18 05:04:53;;;;;;;4.90;3.50;;;;;;;-145.69;65.04;52291.91;5543038;26;20217;-79
2024/04/18 05:07:34;;;;;;;5.10;3.83;;;;;;;-145.69;64.87;52270.13;5542027;26;20673;-78
2024/04/18 05:10:13;;;;;;;5.23;3.73;;;;;;;-145.69;64.61;52297.84;5537240;26;20593;-80
2024/04/18 05:13:03;;;;;;;4.73;3.37;;;;;;;-145.69;64.76;52268.13;5504763;26;20234;-80
2024/04/18 05:15:29;;;;;;;5.00;3.73;;;;;;;-145.69;64.60;52264.16;5504585;26;20273;-79
2024/04/18 05:17:59;;;;;;;5.70;3.90;;;;;;;-145.69;64.62;52274.06;5505942;26;20219;-80
2024/04/18 05:20:27;;;;;;;5.40;3.77;;;;;;;-145.69;64.36;52238.44;5510328;26;20237;-79
2024/04/18 05:22:56;;;;;;;4.23;3.50;;;;;;;-145.69;64.14;52266.16;5541798;26;20237;-79
2024/04/18 05:25:22;;;;;;;7.33;3.70;;;;;;;-145.69;64.30;52272.09;5539521;26;20280;-79
2024/04/18 05:28:03;;;;;;;5.83;4.00;;;;;;;-145.69;64.22;52282.00;5541088;26;20213;-80
2024/04/18 05:33:21;;;;;;;6.13;3.53;;;;;;;-145.69;64.54;52274.06;5542981;26;20298;-80
2024/04/18 05:35:52;;;;;;;4.90;3.70;;;;;;;-145.69;64.53;52295.84;5540096;26;20221;-79
2024/04/18 05:38:20;;;;;;;6.17;4.50;;;;;;;-145.69;64.45;52258.22;5542001;26;20230;-79
2024/04/18 05:40:49;;;;;;;7.23;4.23;;;;;;;-145.69;64.69;52228.53;5539469;25;20736;-79
2024/04/18 05:43:26;;;;;;;5.87;4.10;;;;;;;-145.69;64.24;52250.31;5537086;26;20226;-79
2024/04/18 05:45:58;;;;;;;6.03;3.50;;;;;;;-145.69;63.66;52250.31;5530237;26;20222;-79
2024/04/18 05:48:26;;;;;;;4.67;3.23;;;;;;;-145.69;64.09;52262.19;5534760;26;20261;-79
2024/04/18 05:50:54;;;;;;;5.50;4.10;;;;;;;-145.69;64.30;52256.25;5533123;26;20299;-79
2024/04/18 05:53:22;;;;;;;5.67;3.20;;;;;;;-145.69;64.30;52268.13;5538680;26;20222;-80
2024/04/18 05:56:02;;;;;;;7.27;3.57;;;;;;;-145.69;63.85;52282.00;5538198;26;20221;-80
2024/04/18 05:58:33;;;;;;;3.53;2.87;;;;;;;-145.69;63.87;52254.28;5538734;26;20217;-80
2024/04/18 06:01:04;;;;;;;3.73;2.70;;;;;;;-145.69;63.84;52291.91;5540690;26;20237;-80
2024/04/18 06:03:35;;;;;;;4.73;2.93;;;;;;;-145.69;63.99;52264.16;5542303;26;20252;-80
2024/04/18 06:06:03;;;;;;;3.13;2.60;;;;;;;-145.69;63.37;52266.16;5544111;26;20222;-79
2024/04/18 06:08:32;;;;;;;4.93;3.10;;;;;;;-145.69;63.33;52274.06;5528851;26;20265;-79
2024/04/18 06:11:00;;;;;;;3.93;2.93;;;;;;;-145.69;62.99;52250.31;5535576;26;20612;-80
2024/04/18 06:13:32;;;;;;;3.50;2.80;;;;;;;-145.69;63.15;52272.09;5505527;26;20219;-81
2024/04/18 06:16:03;;;;;;;6.73;2.73;;;;;;;-145.69;63.56;52262.19;5506481;26;20744;-80
2024/04/18 06:18:36;;;;;;;3.13;2.53;;;;;;;-145.69;63.54;52274.06;5506371;26;20257;-79
2024/04/18 06:21:08;;;;;;;2.93;2.43;;;;;;;-145.69;62.96;52262.19;5534467;26;20230;-79
2024/04/18 06:23:36;;;;;;;3.87;2.70;;;;;;;-145.69;62.63;52270.13;5540971;26;20596;-79
2024/04/18 06:26:21;;;;;;;5.07;3.00;;;;;;;-145.69;63.07;52262.19;5544168;26;20237;-79
2024/04/18 06:28:49;;;;;;;3.63;2.60;;;;;;;-145.69;61.87;52283.97;5548677;26;20306;-79
2024/04/18 06:31:20;;;;;;;4.60;3.00;;;;;;;-145.69;61.27;52266.16;5549454;26;20234;-78
2024/04/18 06:34:00;;;;;;;4.07;3.20;;;;;;;-145.69;61.11;52266.16;5548512;26;20310;-78
2024/04/18 06:36:28;;;;;;;6.53;3.47;;;;;;;-145.69;61.06;52276.06;5547845;26;20214;-79
2024/04/18 06:39:00;;;;;;;3.40;2.90;;;;;;;-145.69;60.44;52278.03;5548194;26;20241;-79
2024/04/18 06:41:36;;;;;;;3.03;2.70;;;;;;;-145.69;60.17;52258.22;5547256;26;20234;-79
2024/04/18 06:44:04;;;;;;;3.00;2.50;;;;;;;-145.69;61.12;52258.22;5547142;26;20248;-78
2024/04/18 06:46:41;;;;;;;2.37;2.07;;;;;;;-145.69;61.33;52283.97;5547476;26;20221;-78
2024/04/18 06:49:09;;;;;;;4.77;2.33;;;;;;;-145.69;61.41;52256.25;5547473;26;20695;-78
2024/04/18 06:51:37;;;;;;;2.73;2.20;;;;;;;-145.69;61.80;52285.97;5523187;26;20233;-78
2024/04/18 06:54:09;;;;;;;2.90;2.60;;;;;;;-145.69;62.24;52270.13;5538646;26;20260;-79
2024/04/18 06:56:40;;;;;;;2.80;2.23;;;;;;;-145.69;62.00;52238.44;5528729;26;20297;-80
2024/04/18 06:59:10;;;;;;;2.40;2.00;;;;;;;-145.69;61.98;52240.41;5526145;26;20230;-78
2024/04/18 07:01:47;;;;;;;3.13;1.73;;;;;;;-145.69;61.43;52278.03;5526313;26;20233;-77
2024/04/18 07:04:15;;;;;;;2.30;2.00;;;;;;;-145.69;61.46;52285.97;5525850;26;20272;-78
2024/04/18 07:06:43;;;;;;;1.80;1.70;;;;;;;-145.69;61.14;52264.16;5526930;26;20316;-77
2024/04/18 07:09:09;;;;;;;1.63;1.53;;;;;;;-145.69;60.25;52250.31;5525175;26;20268;-78
2024/04/18 07:11:39;;;;;;;3.07;1.40;;;;;;;-145.69;60.18;52240.41;5526549;26;20237;-78
2024/04/18 07:14:08;;;;;;;1.57;1.47;;;;;;;-145.69;58.10;52266.16;5525568;26;20719;-77
2024/04/18 07:16:38;;;;;;;1.60;1.50;;;;;;;-145.69;58.64;52214.66;5525686;26;20241;-77
2024/04/18 07:19:09;;;;;;;1.67;1.57;;;;;;;-145.69;58.07;52252.28;5489969;26;20322;-78
2024/04/18 07:21:37;;;;;;;1.77;1.50;;;;;;;-145.69;56.76;52238.44;5488887;26;20271;-78
2024/04/18 07:24:06;;;;;;;2.27;1.93;;;;;;;-145.69;57.00;52252.28;5490091;26;20326;-78
2024/04/18 07:26:33;;;;;;;2.17;1.93;;;;;;;-145.69;55.82;52230.50;5492856;26;20298;-78
2024/04/18 07:29:03;;;;;;;2.43;2.00;;;;;;;-145.69;55.51;52230.50;5527016;26;20281;-78
2024/04/18 07:31:34;;;;;;;2.53;1.70;;;;;;;-145.69;54.66;52254.28;5525936;26;20221;-78
2024/04/18 07:34:02;;;;;;;1.80;1.70;;;;;;;-145.69;54.99;52236.44;5526508;26;20237;-78
2024/04/18 07:36:33;;;;;;;2.60;1.37;;;;;;;-145.69;54.73;52218.63;5526122;26;20229;-78
2024/04/18 07:39:01;;;;;;;1.40;1.30;;;;;;;-145.69;55.11;52258.22;5526369;26;20281;-78
2024/04/18 07:41:29;;;;;;;1.20;1.10;;;;;;;-145.69;55.97;52266.16;5526461;26;20221;-78
2024/04/18 07:43:57;;;;;;;1.53;1.20;;;;;;;-145.69;55.49;52254.28;5525729;26;20735;-79
2024/04/18 07:46:30;;;;;;;1.17;1.07;;;;;;;-145.69;55.48;52226.53;5526331;26;20268;-78
2024/04/18 07:49:01;;;;;;;0.93;0.93;;;;;;;-145.69;55.47;52274.06;5529050;26;20268;-79
2024/04/18 07:51:32;;;;;;;1.03;1.00;;;;;;;-145.69;55.17;52218.63;5533356;26;20256;-79
2024/04/18 07:54:01;;;;;;;1.10;1.00;;;;;;;-145.69;55.39;52250.31;5538084;26;20324;-80
2024/04/18 07:56:29;;;;;;;1.30;1.20;;;;;;;-145.69;54.96;52222.59;5540573;26;20763;-80
2024/04/18 07:58:57;;;;;;;1.37;1.10;;;;;;;-145.69;53.33;52222.59;5537807;26;20256;-79
2024/04/18 08:01:35;;;;;;;1.10;1.00;;;;;;;-145.69;54.34;52234.47;5538765;26;20241;-80
2024/04/18 08:04:05;;;;;;;1.40;1.17;;;;;;;-145.69;54.25;52226.53;5539902;26;20269;-79
2024/04/18 08:06:36;;;;;;;1.37;1.27;;;;;;;-145.69;53.71;52214.66;5540069;26;20237;-79
2024/04/18 08:09:05;;;;;;;2.00;1.70;;;;;;;-145.69;53.63;52202.78;5539464;26;20748;-79
2024/04/18 08:11:33;;;;;;;1.90;1.60;;;;;;;-145.69;53.94;52238.44;5538589;26;20230;-79
2024/04/18 08:14:01;;;;;;;1.80;1.67;;;;;;;-145.69;53.59;52230.50;5541226;26;20221;-80
2024/04/18 08:16:35;;;;;;;2.07;1.87;;;;;;;-145.69;52.96;52206.75;5541610;26;20268;-80
2024/04/18 08:19:03;;;;;;;8.17;2.00;;;;;;;-145.69;52.91;52222.59;5542432;26;20268;-80
2024/04/18 08:21:39;;;;;;;2.20;1.93;;;;;;;-145.69;53.32;52226.53;5545947;26;20276;-81
2024/04/18 08:24:18;;;;;;;2.37;2.00;;;;;;;-145.69;53.15;52226.53;5546836;25;20245;-80
2024/04/18 08:26:46;;;;;;;2.50;1.83;;;;;;;-145.69;53.12;52222.59;5543915;26;20229;-80
2024/04/18 08:29:22;;;;;;;3.33;1.90;;;;;;;-145.69;52.19;52173.09;5541870;26;20339;-80
2024/04/18 08:31:56;;;;;;;2.13;1.77;;;;;;;-145.69;51.42;52234.47;5536607;26;20224;-79
2024/04/18 08:34:24;;;;;;;2.83;1.70;;;;;;;-145.69;49.94;52202.78;5496338;26;20235;-80
2024/04/18 08:36:56;;;;;;;2.10;1.90;;;;;;;-145.69;48.51;52230.50;5494923;26;20226;-80
2024/04/18 08:39:31;;;;;;;3.73;1.80;;;;;;;-145.69;48.29;52184.97;5526701;26;20229;-78
2024/04/18 08:42:04;;;;;;;2.50;2.10;;;;;;;-145.69;47.33;52204.75;5525774;26;20280;-78
2024/04/18 08:44:34;;;;;;;2.23;2.03;;;;;;;-145.69;47.05;52186.94;5526314;26;20237;-78
2024/04/18 08:47:03;;;;;;;1.70;1.50;;;;;;;-145.69;47.35;52200.81;5527145;26;20277;-77
2024/04/18 08:49:33;;;;;;;1.67;1.57;;;;;;;-145.69;48.29;52218.63;5513857;26;20230;-77
2024/04/18 08:52:06;;;;;;;2.93;1.97;;;;;;;-145.69;48.61;52173.09;5489472;26;20291;-77
2024/04/18 08:54:38;;;;;;;2.57;1.87;;;;;;;-145.69;48.79;52186.94;5516786;26;20347;-77
2024/04/18 08:57:10;;;;;;;2.33;1.83;;;;;;;-145.69;48.92;52218.63;5525931;26;20213;-77
2024/04/18 08:59:38;;;;;;;1.57;1.47;;;;;;;-145.69;49.18;52218.63;5524549;26;20229;-77
2024/04/18 09:02:09;;;;;;;1.83;1.70;;;;;;;-145.69;49.06;52208.72;5524858;26;20229;-76
2024/04/18 09:04:39;;;;;;;1.80;1.70;;;;;;;-145.69;48.39;52179.03;5524813;26;20769;-77
2024/04/18 09:07:11;;;;;;;2.77;1.77;;;;;;;-145.69;49.03;52214.66;5524471;26;20237;-77
2024/04/18 09:09:39;;;;;;;2.10;1.77;;;;;;;-145.69;48.45;52192.88;5524058;26;20339;-77
2024/04/18 09:12:10;;;;;;;1.97;1.60;;;;;;;-145.69;47.71;52224.56;5523351;26;20229;-77
2024/04/18 09:14:39;;;;;;;3.60;1.53;;;;;;;-145.69;47.15;52186.94;5523227;26;20256;-77
2024/04/18 09:17:14;;;;;;;1.67;1.50;;;;;;;-145.69;48.29;52169.13;5524223;26;20221;-77
2024/04/18 09:19:42;;;;;;;2.20;1.40;;;;;;;-145.69;47.26;52210.72;5524304;26;20255;-77
2024/04/18 09:22:14;;;;;;;2.03;1.40;;;;;;;-145.69;46.56;52192.88;5524760;26;20238;-77
2024/04/18 09:24:45;;;;;;;2.10;1.60;;;;;;;-145.69;46.47;52202.78;5524762;26;20234;-80
2024/04/18 09:27:16;;;;;;;2.20;1.57;;;;;;;-145.69;46.16;52186.94;5526126;26;20264;-78
2024/04/18 09:29:44;;;;;;;2.40;1.40;;;;;;;-145.69;45.18;52192.88;5528604;26;20328;-78
2024/04/18 09:32:14;;;;;;;1.77;1.33;;;;;;;-145.69;44.75;52186.94;5527934;26;20241;-78
2024/04/18 09:34:47;;;;;;;1.60;1.33;;;;;;;-145.69;43.48;52184.97;5527576;26;20804;-78
2024/04/18 09:37:18;;;;;;;1.80;1.40;;;;;;;-145.69;43.33;52167.13;5528817;26;20221;-78
2024/04/18 09:39:48;;;;;;;1.63;1.53;;;;;;;-145.69;43.00;52182.97;5525503;26;20234;-78
2024/04/18 09:42:21;;;;;;;2.80;1.13;;;;;;;-145.69;43.68;52139.41;5527696;26;20226;-79
2024/04/18 09:44:57;;;;;;;3.07;1.53;;;;;;;-145.69;45.41;52179.03;5528427;26;20545;-78
2024/04/18 09:47:29;;;;;;;3.27;1.47;;;;;;;-145.69;45.74;52198.81;5528403;26;20263;-78
2024/04/18 09:50:00;;;;;;;1.50;1.40;;;;;;;-145.69;47.63;52171.09;5527877;26;20716;-78
2024/04/18 09:52:33;;;;;;;2.50;1.63;;;;;;;-145.69;47.45;52159.22;5528364;26;20245;-78
2024/04/18 09:55:03;;;;;;;1.50;1.40;;;;;;;-145.69;47.15;52175.06;5527886;26;20225;-78
2024/04/18 09:57:34;;;;;;;1.30;1.20;;;;;;;-145.69;47.84;52175.06;5528782;26;20221;-79
2024/04/18 10:00:03;;;;;;;1.60;1.30;;;;;;;-145.69;47.58;52169.13;5527855;26;20225;-78
2024/04/18 10:02:40;;;;;;;1.47;1.30;;;;;;;-145.69;47.54;52194.88;5491249;26;20352;-79
2024/04/18 10:05:09;;;;;;;1.57;1.20;;;;;;;-145.69;46.97;52175.06;5525281;26;20226;-78
2024/04/18 10:07:41;;;;;;;1.47;1.30;;;;;;;-145.69;46.10;52188.91;5527539;26;20926;-79
2024/04/18 10:10:14;;;;;;;2.67;1.23;;;;;;;-145.69;46.94;52181.00;5527810;26;20545;-79
2024/04/18 10:12:43;;;;;;;2.07;1.10;;;;;;;-145.69;45.64;52202.78;5527868;26;20742;-79
2024/04/18 10:15:13;;;;;;;2.10;1.17;;;;;;;-145.69;45.23;52165.16;5527096;26;20256;-79
2024/04/18 10:17:41;;;;;;;2.07;1.30;;;;;;;-145.69;45.39;52173.09;5527119;26;20268;-79
2024/04/18 10:20:09;;;;;;;1.23;1.13;;;;;;;-145.69;44.92;52181.00;5526376;26;20230;-79
2024/04/18 10:22:40;;;;;;;1.23;1.10;;;;;;;-145.69;43.58;52155.25;5526689;26;20245;-78
2024/04/18 10:25:21;;;;;;;1.20;1.10;;;;;;;-145.69;41.98;52167.13;5527552;26;20245;-80
2024/04/18 10:27:49;;;;;;;1.00;1.00;;;;;;;-145.69;41.36;52123.56;5519866;25;20230;-79
2024/04/18 10:30:18;;;;;;;2.33;1.30;;;;;;;-145.69;40.60;52167.13;5527234;26;20230;-79
2024/04/18 10:32:48;;;;;;;2.33;1.23;;;;;;;-145.69;40.49;52129.50;5528557;26;20221;-79
2024/04/18 10:35:18;;;;;;;2.33;1.30;;;;;;;-145.69;41.54;52194.88;5527594;26;20779;-78
2024/04/18 10:37:57;;;;;;;1.38;1.10;;;;;;;-145.69;43.35;52165.16;5529309;26;20245;-80
2024/04/18 10:40:28;;;;;;;1.00;0.90;;;;;;;-145.69;44.73;52147.34;5527961;26;20225;-79
2024/04/18 10:43:15;;;;;;;1.20;0.90;;;;;;;-145.69;45.11;52194.88;5528606;26;20343;-78
2024/04/18 10:45:44;;;;;;;0.73;0.73;;;;;;;-145.69;47.34;52190.91;5529018;26;20716;-77
2024/04/18 10:48:16;;;;;;;0.70;0.70;;;;;;;-145.69;51.88;52179.03;5528180;26;20225;-79
2024/04/18 10:50:45;;;;;;;0.80;0.80;;;;;;;-145.69;54.64;52181.00;5526915;26;20762;-78
2024/04/18 10:53:16;;;;;;;1.03;0.97;;;;;;;-145.69;55.60;52210.72;5527268;26;20218;-78
2024/04/18 10:55:47;;;;;;;0.80;0.80;;;;;;;-145.69;56.60;52230.50;5526579;26;20727;-78
2024/04/18 10:58:18;;;;;;;1.13;0.90;;;;;;;-145.69;58.54;52228.53;5526552;26;20268;-78
2024/04/18 11:00:47;;;;;;;1.03;0.93;;;;;;;-145.69;60.74;52240.41;5526558;26;20221;-78
2024/04/18 11:03:18;;;;;;;0.80;0.80;;;;;;;-145.69;61.25;52190.91;5527004;26;20271;-78
2024/04/18 11:05:49;;;;;;;1.00;1.00;;;;;;;-145.69;61.94;52238.44;5526631;26;20234;-77
2024/04/18 11:08:22;;;;;;;3.00;0.80;;;;;;;-145.69;62.48;52230.50;5526900;26;20237;-78
2024/04/18 11:10:53;;;;;;;1.43;1.00;;;;;;;-145.69;62.19;52214.66;5526880;26;20242;-78
2024/04/18 11:13:22;;;;;;;1.40;1.30;;;;;;;-145.69;61.64;52198.81;5526931;26;20743;-78
2024/04/18 11:15:50;;;;;;;1.53;1.43;;;;;;;-145.69;62.43;52234.47;5526501;26;20229;-78
2024/04/18 11:18:21;;;;;;;2.43;2.23;;;;;;;-145.69;60.40;52210.72;5526489;26;20273;-78
2024/04/18 11:20:49;;;;;;;1.73;1.63;;;;;;;-145.69;60.54;52194.88;5526610;26;20264;-78
2024/04/18 11:23:24;;;;;;;2.30;1.53;;;;;;;-145.69;60.46;52200.81;5526844;26;20225;-78
2024/04/18 11:25:57;;;;;;;2.57;1.50;;;;;;;-145.69;60.06;52246.34;5525498;26;20228;-79
2024/04/18 11:28:27;;;;;;;1.97;1.67;;;;;;;-145.69;59.58;52196.84;5526325;26;20325;-78
2024/04/18 11:30:58;;;;;;;1.77;1.40;;;;;;;-145.69;60.62;52208.72;5526421;26;20222;-79
2024/04/18 11:33:27;;;;;;;1.60;1.50;;;;;;;-145.69;57.91;52214.66;5526824;26;20317;-78
2024/04/18 11:35:58;;;;;;;2.30;2.10;;;;;;;-145.69;57.72;52179.03;5526339;26;20332;-79